createdAt,value
2023-04-01T00:00:05.208Z,5.90
2023-04-01T00:02:06.998Z,6.57
2023-04-01T00:04:08.871Z,6.65
2023-04-01T00:06:14.797Z,5.85
2023-04-01T00:08:17.762Z,6.38
2023-04-01T00:10:19.760Z,6.03
2023-04-01T00:12:21.593Z,6.15
2023-04-01T00:14:23.433Z,5.90
2023-04-01T00:16:25.253Z,5.60
2023-04-01T00:18:27.283Z,6.00
2023-04-01T00:20:29.736Z,5.78
2023-04-01T00:22:31.558Z,4.85
2023-04-01T00:24:33.435Z,5.55
2023-04-01T00:26:35.485Z,5.78
2023-04-01T00:28:37.676Z,5.22
2023-04-01T00:30:39.738Z,5.60
2023-04-01T00:32:41.836Z,5.40
2023-04-01T00:34:45.465Z,4.53
2023-04-01T00:36:47.245Z,4.78
2023-04-01T00:38:49.090Z,5.28
2023-04-01T00:40:50.910Z,4.85
2023-04-01T00:42:52.941Z,5.70
2023-04-01T00:44:56.060Z,5.00
2023-04-01T00:46:58.140Z,5.65
2023-04-01T00:49:01.972Z,5.15
2023-04-01T00:51:07.194Z,5.88
2023-04-01T00:53:09.507Z,5.95
2023-04-01T00:55:14.131Z,5.63
2023-04-01T00:57:21.368Z,5.75
2023-04-01T00:59:27.706Z,5.88
2023-04-01T01:01:32.597Z,5.78
2023-04-01T01:03:35.356Z,5.82
2023-04-01T01:05:59.883Z,5.60
2023-04-01T01:08:08.001Z,5.65
2023-04-01T01:10:20.894Z,5.25
2023-04-01T01:12:34.457Z,4.75
2023-04-01T01:14:56.028Z,5.15
2023-04-01T01:17:11.250Z,4.80
2023-04-01T01:19:24.402Z,3.83
2023-04-01T01:21:45.984Z,3.45
2023-04-01T01:24:00.699Z,2.97
2023-04-01T01:26:23.567Z,2.75
2023-04-01T01:28:37.880Z,2.30
2023-04-01T01:30:50.649Z,2.05
2023-04-01T01:33:12.070Z,2.13
2023-04-01T01:35:23.330Z,1.45
2023-04-01T01:37:28.878Z,1.98
2023-04-01T01:39:34.588Z,1.88
2023-04-01T01:41:40.354Z,2.08
2023-04-01T01:43:47.214Z,1.80
2023-04-01T01:45:53.769Z,2.08
2023-04-01T01:47:59.116Z,1.75
2023-04-01T01:50:02.343Z,1.85
2023-04-01T01:52:04.781Z,1.63
2023-04-01T01:54:13.181Z,2.30
2023-04-01T01:56:15.131Z,1.60
2023-04-01T01:58:41.398Z,1.80
2023-04-01T02:00:47.765Z,1.67
2023-04-01T02:02:50.753Z,1.85
2023-04-01T02:04:55.195Z,2.13
2023-04-01T02:07:04.753Z,2.17
2023-04-01T02:09:14.073Z,2.03
2023-04-01T02:11:21.330Z,1.55
2023-04-01T02:13:35.097Z,2.28
2023-04-01T02:15:42.346Z,2.47
2023-04-01T02:17:46.481Z,2.03
2023-04-01T02:19:54.749Z,1.85
2023-04-01T02:22:02.431Z,2.10
2023-04-01T02:24:08.975Z,1.73
2023-04-01T02:26:12.536Z,2.00
2023-04-01T02:28:17.629Z,1.42
2023-04-01T02:30:20.242Z,1.50
2023-04-01T02:32:22.649Z,1.42
2023-04-01T02:34:25.955Z,2.40
2023-04-01T02:36:27.934Z,1.63
2023-04-01T02:38:29.857Z,1.40
2023-04-01T02:40:43.572Z,1.85
2023-04-01T02:42:46.008Z,2.10
2023-04-01T02:44:48.029Z,1.58
2023-04-01T02:46:50.679Z,1.10
2023-04-01T02:48:52.442Z,1.60
2023-04-01T02:50:57.443Z,1.27
2023-04-01T02:52:59.353Z,1.17
2023-04-01T02:55:01.108Z,1.27
2023-04-01T02:57:02.977Z,1.35
2023-04-01T02:59:04.718Z,1.10
2023-04-01T03:01:09.436Z,1.20
2023-04-01T03:03:14.741Z,0.88
2023-04-01T03:05:16.987Z,0.90
2023-04-01T03:07:18.778Z,0.90
2023-04-01T03:09:20.716Z,0.80
2023-04-01T03:11:22.842Z,1.08
2023-04-01T03:13:24.743Z,0.80
2023-04-01T03:15:26.442Z,0.60
2023-04-01T03:17:28.201Z,0.98
2023-04-01T03:19:30.057Z,0.70
2023-04-01T03:21:31.841Z,0.50
2023-04-01T03:23:33.545Z,0.68
2023-04-01T03:25:35.758Z,0.95
2023-04-01T03:27:37.495Z,0.80
2023-04-01T03:29:39.896Z,0.80
2023-04-01T03:31:41.621Z,0.68
2023-04-01T03:33:43.889Z,0.50
2023-04-01T03:35:47.817Z,0.70
2023-04-01T03:37:49.589Z,0.70
2023-04-01T03:39:51.296Z,0.65
2023-04-01T03:41:53.073Z,0.70
2023-04-01T03:43:54.995Z,0.90
2023-04-01T03:45:58.990Z,1.20
2023-04-01T03:48:00.924Z,0.60
2023-04-01T03:50:04.405Z,0.80
2023-04-01T03:52:10.706Z,0.82
2023-04-01T03:54:12.526Z,0.90
2023-04-01T03:56:14.332Z,0.75
2023-04-01T03:58:16.312Z,0.88
2023-04-01T04:00:18.683Z,0.75
2023-04-01T04:02:20.727Z,0.88
2023-04-01T04:04:22.802Z,0.90
2023-04-01T04:06:25.543Z,0.90
2023-04-01T04:08:27.310Z,0.73
2023-04-01T04:10:30.276Z,0.85
2023-04-01T04:12:32.239Z,0.85
2023-04-01T04:14:33.971Z,0.90
2023-04-01T04:16:37.673Z,0.88
2023-04-01T04:18:39.472Z,0.98
2023-04-01T04:20:52.230Z,0.60
2023-04-01T04:22:53.958Z,0.80
2023-04-01T04:24:55.868Z,1.70
2023-04-01T04:26:57.596Z,0.90
2023-04-01T04:28:59.493Z,1.33
2023-04-01T04:31:01.918Z,1.00
2023-04-01T04:33:04.030Z,1.27
2023-04-01T04:35:07.736Z,1.02
2023-04-01T04:37:11.726Z,0.98
2023-04-01T04:39:16.839Z,0.90
2023-04-01T04:41:20.056Z,0.98
2023-04-01T04:43:22.469Z,1.27
2023-04-01T04:45:24.259Z,0.80
2023-04-01T04:47:26.202Z,0.77
2023-04-01T04:49:27.956Z,0.75
2023-04-01T04:51:29.689Z,0.60
2023-04-01T04:53:31.554Z,0.70
2023-04-01T04:55:33.633Z,0.60
2023-04-01T04:57:35.945Z,0.50
2023-04-01T04:59:38.318Z,0.60
2023-04-01T05:01:40.242Z,0.50
2023-04-01T05:03:42.636Z,0.60
2023-04-01T05:05:51.493Z,0.70
2023-04-01T05:07:53.270Z,0.55
2023-04-01T05:09:55.024Z,1.17
2023-04-01T05:11:56.823Z,0.85
2023-04-01T05:13:58.605Z,0.80
2023-04-01T05:16:00.344Z,0.73
2023-04-01T05:18:02.153Z,0.98
2023-04-01T05:20:04.383Z,0.80
2023-04-01T05:22:07.273Z,0.73
2023-04-01T05:24:11.173Z,0.60
2023-04-01T05:26:15.396Z,0.70
2023-04-01T05:28:17.193Z,0.65
2023-04-01T05:30:19.263Z,1.10
2023-04-01T05:32:21.045Z,0.90
2023-04-01T05:34:22.844Z,1.10
2023-04-01T05:36:24.652Z,1.08
2023-04-01T05:38:26.374Z,0.98
2023-04-01T05:40:29.250Z,1.40
2023-04-01T05:42:31.187Z,1.00
2023-04-01T05:44:33.107Z,0.80
2023-04-01T05:46:37.223Z,0.80
2023-04-01T05:48:39.138Z,1.00
2023-04-01T05:50:42.646Z,1.30
2023-04-01T05:52:45.682Z,1.00
2023-04-01T05:54:47.562Z,1.70
2023-04-01T05:56:51.798Z,1.50
2023-04-01T05:58:55.292Z,1.67
2023-04-01T06:01:11.538Z,1.70
2023-04-01T06:03:17.579Z,1.60
2023-04-01T06:05:24.234Z,1.30
2023-04-01T06:07:26.030Z,1.50
2023-04-01T06:09:31.243Z,1.58
2023-04-01T06:11:43.981Z,1.73
2023-04-01T06:14:06.600Z,1.70
2023-04-01T06:16:17.205Z,1.80
2023-04-01T06:18:39.021Z,1.90
2023-04-01T06:20:58.764Z,1.85
2023-04-01T06:23:17.081Z,1.73
2023-04-01T06:25:29.311Z,2.20
2023-04-01T06:27:50.888Z,1.85
2023-04-01T06:30:11.962Z,2.13
2023-04-01T06:32:17.613Z,1.65
2023-04-01T06:34:26.905Z,1.58
2023-04-01T06:36:41.802Z,1.67
2023-04-01T06:39:02.790Z,2.03
2023-04-01T06:41:23.754Z,1.88
2023-04-01T06:47:58.332Z,2.13
2023-04-01T06:50:00.692Z,1.98
2023-04-01T06:52:09.097Z,2.00
2023-04-01T06:54:17.523Z,1.85
2023-04-01T06:56:21.895Z,1.80
2023-04-01T06:58:27.802Z,2.00
2023-04-01T07:00:36.060Z,2.10
2023-04-01T07:02:46.986Z,1.73
2023-04-01T07:04:52.687Z,2.30
2023-04-01T07:06:59.790Z,2.03
2023-04-01T07:09:06.410Z,2.38
2023-04-01T07:11:11.753Z,1.77
2023-04-01T07:13:23.276Z,2.10
2023-04-01T07:15:32.243Z,2.15
2023-04-01T07:17:37.687Z,2.10
2023-04-01T07:19:59.207Z,2.28
2023-04-01T07:22:10.825Z,1.65
2023-04-01T07:24:22.675Z,1.25
2023-04-01T07:26:27.942Z,1.50
2023-04-01T07:28:33.857Z,1.38
2023-04-01T07:30:49.453Z,1.90
2023-04-01T07:33:06.819Z,1.75
2023-04-01T07:35:21.345Z,2.10
2023-04-01T07:37:43.038Z,2.60
2023-04-01T07:40:04.508Z,1.77
2023-04-01T07:42:16.917Z,2.50
2023-04-01T07:44:30.506Z,2.15
2023-04-01T07:46:42.591Z,2.30
2023-04-01T07:48:59.689Z,2.28
2023-04-01T07:51:11.303Z,2.03
2023-04-01T07:53:22.770Z,2.28
2023-04-01T07:55:39.394Z,2.15
2023-04-01T07:57:48.635Z,2.05
2023-04-01T08:00:09.781Z,1.83
2023-04-01T08:02:34.321Z,2.55
2023-04-01T08:04:37.778Z,2.38
2023-04-01T08:07:00.915Z,2.45
2023-04-01T08:09:10.795Z,2.85
2023-04-01T08:11:29.515Z,3.00
2023-04-01T08:13:50.085Z,2.25
2023-04-01T08:16:07.158Z,2.17
2023-04-01T08:18:18.667Z,2.03
2023-04-01T08:20:43.598Z,2.10
2023-04-01T08:22:53.983Z,1.98
2023-04-01T08:25:01.252Z,1.98
2023-04-01T08:27:13.844Z,1.92
2023-04-01T08:29:22.552Z,1.83
2023-04-01T08:31:28.095Z,1.90
2023-04-01T08:33:32.126Z,1.65
2023-04-01T08:35:51.540Z,2.10
2023-04-01T08:37:56.674Z,1.77
2023-04-01T08:40:09.983Z,1.98
2023-04-01T08:42:13.530Z,2.15
2023-04-01T08:44:32.083Z,2.30
2023-04-01T08:46:44.345Z,2.60
2023-04-01T08:49:06.176Z,2.85
2023-04-01T08:51:27.990Z,2.25
2023-04-01T08:53:41.084Z,3.08
2023-04-01T08:55:56.081Z,3.42
2023-04-01T08:58:07.952Z,3.53
2023-04-01T09:00:39.155Z,3.08
2023-04-01T09:02:51.162Z,2.75
2023-04-01T09:05:19.338Z,3.25
2023-04-01T09:07:47.795Z,2.92
2023-04-01T09:10:12.882Z,3.25
2023-04-01T09:12:24.834Z,3.30
2023-04-01T09:14:33.136Z,2.67
2023-04-01T09:16:54.733Z,2.50
2023-04-01T09:19:13.515Z,2.58
2023-04-01T09:21:27.794Z,2.15
2023-04-01T09:23:39.808Z,2.20
2023-04-01T09:26:10.889Z,1.88
2023-04-01T09:28:17.120Z,1.75
2023-04-01T09:30:29.398Z,2.03
2023-04-01T09:32:54.621Z,1.50
2023-04-01T09:35:12.409Z,1.60
2023-04-01T09:37:34.628Z,1.50
2023-04-01T09:39:43.589Z,2.65
2023-04-01T09:42:01.421Z,2.78
2023-04-01T09:44:19.804Z,3.17
2023-04-01T09:46:34.515Z,3.85
2023-04-01T09:48:55.940Z,3.30
2023-04-01T09:51:20.138Z,4.15
2023-04-01T09:53:42.590Z,3.67
2023-04-01T09:56:07.317Z,3.88
2023-04-01T09:58:33.526Z,2.95
2023-04-01T10:00:38.718Z,3.08
2023-04-01T10:03:02.131Z,3.20
2023-04-01T10:05:24.015Z,2.60
2023-04-01T10:07:52.336Z,2.30
2023-04-01T10:10:14.133Z,2.15
2023-04-01T10:12:35.015Z,2.40
2023-04-01T10:19:23.116Z,2.33
2023-04-01T10:21:37.210Z,2.70
2023-04-01T10:24:00.024Z,2.75
2023-04-01T10:26:25.099Z,3.08
2023-04-01T10:28:41.581Z,2.90
2023-04-01T10:30:53.961Z,3.55
2023-04-01T10:33:20.508Z,3.20
2023-04-01T10:35:33.168Z,3.65
2023-04-01T10:37:45.776Z,2.97
2023-04-01T10:39:58.697Z,3.08
2023-04-01T10:42:22.066Z,2.28
2023-04-01T10:44:41.770Z,2.70
2023-04-01T10:46:46.958Z,2.50
2023-04-01T10:49:06.484Z,3.17
2023-04-01T10:51:19.156Z,2.47
2023-04-01T10:53:42.084Z,2.65
2023-04-01T10:55:48.433Z,2.80
2023-04-01T10:58:15.530Z,3.22
2023-04-01T11:00:33.427Z,2.95
2023-04-01T11:02:47.967Z,2.95
2023-04-01T11:05:11.276Z,3.88
2023-04-01T11:07:43.995Z,2.95
2023-04-01T11:10:18.097Z,2.30
2023-04-01T11:12:30.322Z,2.60
2023-04-01T11:14:58.196Z,2.50
2023-04-01T11:17:10.480Z,2.50
2023-04-01T11:19:24.973Z,2.65
2023-04-01T11:21:46.436Z,1.60
2023-04-01T11:24:09.382Z,2.88
2023-04-01T11:26:27.496Z,2.60
2023-04-01T11:28:39.334Z,2.53
2023-04-01T11:31:06.753Z,2.45
2023-04-01T11:33:24.598Z,2.20
2023-04-01T11:35:37.772Z,1.50
2023-04-01T11:37:46.550Z,1.52
2023-04-01T11:40:04.788Z,1.80
2023-04-01T11:42:21.899Z,1.65
2023-04-01T11:44:28.436Z,1.52
2023-04-01T11:46:44.977Z,1.63
2023-04-01T11:49:05.839Z,1.25
2023-04-01T11:53:26.591Z,1.30
2023-04-01T11:55:42.080Z,1.10
2023-04-01T11:57:57.918Z,1.00
2023-04-01T12:00:19.290Z,0.93
2023-04-01T12:02:37.106Z,1.10
2023-04-01T12:04:55.630Z,1.40
2023-04-01T12:07:17.013Z,1.20
2023-04-01T12:09:29.915Z,1.10
2023-04-01T12:11:46.329Z,2.58
2023-04-01T12:14:06.210Z,1.30
2023-04-01T12:16:14.728Z,0.90
2023-04-01T12:18:33.173Z,0.80
2023-04-01T12:20:43.574Z,0.93
2023-04-01T12:23:02.656Z,1.05
2023-04-01T12:25:18.970Z,1.08
2023-04-01T12:27:40.310Z,0.80
2023-04-01T12:29:52.744Z,0.82
2023-04-01T12:32:12.122Z,0.80
2023-04-01T12:34:24.988Z,0.70
2023-04-01T12:36:36.816Z,1.35
2023-04-01T12:38:49.795Z,1.08
2023-04-01T12:41:11.961Z,1.60
2023-04-01T12:43:30.833Z,1.38
2023-04-01T12:45:34.714Z,0.93
2023-04-01T12:47:51.691Z,0.98
2023-04-01T12:50:02.438Z,1.15
2023-04-01T12:54:27.798Z,1.08
2023-04-01T12:56:38.310Z,0.90
2023-04-01T12:59:01.091Z,0.90
2023-04-01T13:01:06.548Z,1.15
2023-04-01T13:03:18.443Z,0.90
2023-04-01T13:05:47.130Z,1.30
2023-04-01T13:07:59.450Z,1.77
2023-04-01T13:10:11.199Z,1.20
2023-04-01T13:12:31.739Z,1.20
2023-04-01T13:15:04.950Z,0.80
2023-04-01T13:17:09.372Z,1.50
2023-04-01T13:19:22.352Z,1.27
2023-04-01T13:21:43.797Z,1.58
2023-04-01T13:23:53.240Z,1.58
2023-04-01T13:26:14.072Z,1.67
2023-04-01T13:28:31.193Z,1.60
2023-04-01T13:30:53.051Z,1.52
2023-04-01T13:33:02.236Z,1.25
2023-04-01T13:35:06.311Z,1.30
2023-04-01T13:37:19.267Z,0.85
2023-04-01T13:39:40.957Z,0.82
2023-04-01T13:42:01.974Z,0.80
2023-04-01T13:44:12.209Z,1.00
2023-04-01T13:46:30.895Z,1.20
2023-04-01T13:48:42.303Z,1.02
2023-04-01T13:50:54.706Z,0.98
2023-04-01T13:52:56.915Z,1.02
2023-04-01T13:55:08.670Z,1.10
2023-04-01T13:57:20.295Z,1.50
2023-04-01T13:59:34.137Z,1.52
2023-04-01T14:01:43.364Z,1.67
2023-04-01T14:04:04.856Z,1.67
2023-04-01T14:06:27.781Z,1.20
2023-04-01T14:08:49.647Z,1.60
2023-04-01T14:11:09.857Z,1.65
2023-04-01T14:13:20.204Z,1.27
2023-04-01T14:15:41.765Z,1.20
2023-04-01T14:17:58.779Z,0.85
2023-04-01T14:20:17.232Z,1.23
2023-04-01T14:22:37.553Z,1.20
2023-04-01T14:24:52.172Z,1.05
2023-04-01T14:27:12.759Z,1.50
2023-04-01T14:29:35.838Z,1.75
2023-04-01T14:31:58.004Z,1.55
2023-04-01T14:34:12.249Z,1.88
2023-04-01T14:36:33.898Z,2.15
2023-04-01T14:38:55.223Z,1.80
2023-04-01T14:41:07.194Z,1.77
2023-04-01T14:43:28.753Z,1.83
2023-04-01T14:45:49.914Z,1.60
2023-04-01T14:47:59.877Z,1.90
2023-04-01T14:50:10.891Z,2.15
2023-04-01T14:52:23.524Z,2.22
2023-04-01T14:54:35.968Z,2.05
2023-04-01T14:56:44.952Z,1.80
2023-04-01T14:58:51.476Z,2.17
2023-04-01T15:01:13.279Z,1.83
2023-04-01T15:03:24.191Z,2.15
2023-04-01T15:05:44.152Z,1.90
2023-04-01T15:07:54.784Z,2.53
2023-04-01T15:10:08.227Z,2.22
2023-04-01T15:12:31.880Z,2.33
2023-04-01T15:14:40.508Z,1.85
2023-04-01T15:17:01.814Z,2.40
2023-04-01T15:19:08.373Z,2.80
2023-04-01T15:21:28.374Z,2.20
2023-04-01T15:23:44.137Z,2.73
2023-04-01T15:26:04.171Z,1.98
2023-04-01T15:28:23.451Z,2.03
2023-04-01T15:30:38.738Z,2.10
2023-04-01T15:32:55.208Z,2.13
2023-04-01T15:35:01.344Z,2.65
2023-04-01T15:37:23.107Z,2.45
2023-04-01T15:39:38.937Z,2.35
2023-04-01T15:42:01.143Z,3.38
2023-04-01T15:44:03.596Z,2.03
2023-04-01T15:46:15.354Z,2.65
2023-04-01T15:48:28.314Z,2.80
2023-04-01T15:53:06.857Z,2.28
2023-04-01T15:55:27.030Z,2.30
2023-04-01T15:57:47.928Z,2.00
2023-04-01T16:06:39.095Z,1.85
2023-04-01T16:08:58.266Z,2.40
2023-04-01T16:11:19.708Z,1.60
2023-04-01T16:13:27.950Z,1.20
2023-04-01T16:15:44.829Z,1.35
2023-04-01T16:18:04.836Z,1.25
2023-04-01T16:20:21.590Z,1.42
2023-04-01T16:22:36.442Z,1.70
2023-04-01T16:24:52.813Z,1.30
2023-04-01T16:27:04.963Z,1.73
2023-04-01T16:29:08.304Z,1.65
2023-04-01T16:31:14.855Z,1.40
2023-04-01T16:33:26.090Z,1.40
2023-04-01T16:35:42.833Z,1.10
2023-04-01T16:37:51.950Z,1.13
2023-04-01T16:40:02.521Z,1.33
2023-04-01T16:42:14.163Z,1.58
2023-04-01T16:44:23.822Z,2.42
2023-04-01T16:46:39.738Z,1.35
2023-04-01T16:48:59.768Z,1.55
2023-04-01T16:51:14.001Z,1.50
2023-04-01T16:53:24.751Z,1.45
2023-04-01T16:57:45.533Z,1.42
2023-04-01T16:59:56.367Z,1.25
2023-04-01T17:02:11.553Z,1.23
2023-04-01T17:04:32.925Z,1.08
2023-04-01T17:06:41.411Z,1.17
2023-04-01T17:09:02.879Z,0.80
2023-04-01T17:11:18.090Z,0.88
2023-04-01T17:13:31.634Z,1.40
2023-04-01T17:15:49.821Z,1.40
2023-04-01T17:18:04.817Z,1.33
2023-04-01T17:20:26.192Z,1.05
2023-04-01T17:22:32.425Z,1.20
2023-04-01T17:24:46.773Z,1.23
2023-04-01T17:27:07.596Z,1.30
2023-04-01T17:31:27.104Z,0.93
2023-04-01T17:33:47.336Z,1.42
2023-04-01T17:36:09.252Z,1.30
2023-04-01T17:38:27.550Z,1.05
2023-04-01T17:40:39.819Z,0.93
2023-04-01T17:42:52.229Z,1.17
2023-04-01T17:45:03.859Z,1.10
2023-04-01T17:47:24.832Z,1.15
2023-04-01T17:49:36.474Z,1.48
2023-04-01T17:51:53.596Z,1.00
2023-04-01T17:54:14.835Z,1.00
2023-04-01T17:56:22.044Z,1.13
2023-04-01T17:58:33.440Z,1.58
2023-04-01T18:00:53.422Z,1.27
2023-04-01T18:03:06.394Z,1.08
2023-04-01T18:05:27.980Z,0.98
2023-04-01T18:07:58.814Z,0.90
2023-04-01T18:10:17.181Z,1.15
2023-04-01T18:12:28.526Z,1.30
2023-04-01T18:14:44.656Z,0.90
2023-04-01T18:17:01.290Z,1.30
2023-04-01T18:19:10.221Z,1.10
2023-04-01T18:21:20.785Z,1.00
2023-04-01T18:23:32.081Z,1.27
2023-04-01T18:25:37.952Z,1.23
2023-04-01T18:27:43.970Z,1.48
2023-04-01T18:30:04.631Z,1.35
2023-04-01T18:32:12.961Z,1.17
2023-04-01T18:34:32.110Z,1.05
2023-04-01T18:36:51.072Z,1.98
2023-04-01T18:39:06.155Z,1.60
2023-04-01T18:41:23.938Z,1.58
2023-04-01T18:43:41.279Z,1.40
2023-04-01T18:45:59.747Z,2.28
2023-04-01T18:48:20.867Z,1.63
2023-04-01T18:50:26.037Z,1.25
2023-04-01T18:52:37.967Z,1.55
2023-04-01T18:54:58.974Z,2.08
2023-04-01T18:57:09.451Z,1.38
2023-04-01T18:59:18.987Z,1.70
2023-04-01T19:01:36.125Z,1.77
2023-04-01T19:03:48.453Z,1.50
2023-04-01T19:05:54.836Z,2.17
2023-04-01T19:08:13.503Z,2.10
2023-04-01T19:10:16.362Z,2.00
2023-04-01T19:12:36.134Z,2.10
2023-04-01T19:14:38.705Z,2.35
2023-04-01T19:16:59.874Z,2.22
2023-04-01T19:19:13.067Z,2.13
2023-04-01T19:21:24.679Z,2.15
2023-04-01T19:23:41.177Z,2.28
2023-04-01T19:25:50.151Z,2.00
2023-04-01T19:27:57.193Z,2.50
2023-04-01T19:30:13.811Z,1.88
2023-04-01T19:32:26.641Z,1.90
2023-04-01T19:34:49.882Z,2.10
2023-04-01T19:37:02.293Z,2.35
2023-04-01T19:39:22.763Z,2.10
2023-04-01T19:41:44.024Z,2.63
2023-04-01T19:43:53.494Z,1.67
2023-04-01T19:46:06.518Z,1.75
2023-04-01T19:48:19.685Z,1.50
2023-04-01T19:50:25.176Z,1.35
2023-04-01T19:52:34.708Z,1.52
2023-04-01T19:54:49.406Z,1.20
2023-04-01T19:57:02.650Z,1.27
2023-04-01T19:59:17.654Z,1.20
2023-04-01T20:01:44.266Z,0.75
2023-04-01T20:03:55.719Z,1.20
2023-04-01T20:06:15.779Z,0.88
2023-04-01T20:08:33.963Z,1.33
2023-04-01T20:10:51.000Z,1.20
2023-04-01T20:13:06.008Z,0.82
2023-04-01T20:15:26.943Z,0.98
2023-04-01T20:17:40.037Z,1.27
2023-04-01T20:19:47.254Z,1.40
2023-04-01T20:21:51.035Z,1.10
2023-04-01T20:24:02.047Z,1.08
2023-04-01T20:26:09.267Z,1.10
2023-04-01T20:28:26.957Z,0.90
2023-04-01T20:30:49.013Z,0.88
2023-04-01T20:33:03.910Z,0.90
2023-04-01T20:35:17.037Z,0.60
2023-04-01T20:37:30.884Z,0.52
2023-04-01T20:39:52.074Z,0.90
2023-04-01T20:42:02.063Z,0.70
2023-04-01T20:44:12.141Z,0.80
2023-04-01T20:46:20.720Z,0.65
2023-04-01T20:48:42.297Z,0.63
2023-04-01T20:50:52.546Z,0.65
2023-04-01T20:53:13.152Z,1.38
2023-04-01T20:55:19.856Z,0.60
2023-04-01T20:57:25.799Z,0.70
2023-04-01T20:59:47.078Z,0.90
2023-04-01T21:01:55.279Z,0.55
2023-04-01T21:04:05.871Z,1.27
2023-04-01T21:06:17.344Z,0.70
2023-04-01T21:08:27.968Z,1.17
2023-04-01T21:10:44.997Z,1.27
2023-04-01T21:12:57.833Z,1.02
2023-04-01T21:15:22.693Z,1.67
2023-04-01T21:17:26.249Z,1.08
2023-04-01T21:19:31.727Z,0.70
2023-04-01T21:21:35.096Z,0.60
2023-04-01T21:23:40.708Z,0.70
2023-04-01T21:25:54.950Z,1.38
2023-04-01T21:28:06.940Z,0.95
2023-04-01T21:30:18.478Z,0.60
2023-04-01T21:32:31.601Z,0.70
2023-04-01T21:34:53.134Z,0.75
2023-04-01T21:37:04.934Z,0.60
2023-04-01T21:39:15.269Z,0.70
2023-04-01T21:41:34.957Z,0.40
2023-04-01T21:43:55.662Z,0.50
2023-04-01T21:46:07.974Z,0.60
2023-04-01T21:48:19.406Z,0.80
2023-04-01T21:50:38.755Z,0.70
2023-04-01T21:52:51.927Z,0.43
2023-04-01T21:55:12.984Z,0.40
2023-04-01T21:57:35.816Z,0.68
2023-04-01T22:00:02.033Z,0.70
2023-04-01T22:02:18.680Z,0.50
2023-04-01T22:04:30.080Z,0.75
2023-04-01T22:06:40.553Z,0.40
2023-04-01T22:08:54.985Z,0.65
2023-04-01T22:11:11.374Z,0.68
2023-04-01T22:13:14.760Z,0.60
2023-04-01T22:15:30.663Z,0.50
2023-04-01T22:17:43.393Z,0.60
2023-04-01T22:19:56.694Z,0.85
2023-04-01T22:22:14.725Z,0.68
2023-04-01T22:24:27.054Z,0.80
2023-04-01T22:26:39.129Z,0.57
2023-04-01T22:28:42.433Z,0.77
2023-04-01T22:30:52.331Z,0.88
2023-04-01T22:33:08.151Z,0.77
2023-04-01T22:35:22.395Z,0.63
2023-04-01T22:37:35.588Z,0.90
2023-04-01T22:39:49.962Z,0.80
2023-04-01T22:42:11.180Z,1.00
2023-04-01T22:44:21.997Z,0.73
2023-04-01T22:48:42.789Z,0.60
2023-04-01T22:50:57.983Z,0.50
2023-04-01T22:53:19.001Z,0.98
2023-04-01T22:55:26.870Z,0.73
2023-04-01T22:57:32.193Z,0.65
2023-04-01T22:59:47.361Z,0.70
2023-04-01T23:02:02.156Z,0.70
2023-04-01T23:04:07.506Z,0.50
2023-04-01T23:06:20.253Z,0.50
2023-04-01T23:08:33.423Z,0.45
2023-04-01T23:10:51.065Z,0.65
2023-04-01T23:12:57.421Z,0.50
2023-04-01T23:15:02.794Z,0.40
2023-04-01T23:17:14.989Z,0.40
2023-04-01T23:19:30.249Z,0.43
2023-04-01T23:21:43.974Z,0.55
2023-04-01T23:23:54.700Z,0.73
2023-04-01T23:25:58.079Z,0.52
2023-04-01T23:28:09.473Z,0.50
2023-04-01T23:30:30.972Z,0.63
2023-04-01T23:32:33.145Z,0.63
2023-04-01T23:34:36.484Z,0.80
2023-04-01T23:36:50.098Z,0.50
2023-04-01T23:38:55.489Z,0.40
2023-04-01T23:40:57.446Z,0.68
2023-04-01T23:42:59.365Z,0.50
2023-04-01T23:45:05.994Z,0.40
2023-04-01T23:47:13.659Z,0.52
2023-04-01T23:49:22.134Z,0.50
2023-04-01T23:51:28.302Z,0.60
2023-04-01T23:53:35.205Z,0.73
2023-04-01T23:55:43.102Z,0.30
2023-04-01T23:58:12.138Z,0.50
